createdAt,value
2016-12-13T00:00:29.369Z,95.78
2016-12-13T00:01:29.661Z,95.78
2016-12-13T00:02:29.361Z,95.78
2016-12-13T00:03:29.355Z,95.78
2016-12-13T00:04:29.349Z,95.87
2016-12-13T00:05:29.349Z,96.81
2016-12-13T00:06:29.489Z,96.06
2016-12-13T00:07:29.361Z,95.87
2016-12-13T00:08:29.333Z,96.25
2016-12-13T00:09:29.326Z,95.97
2016-12-13T00:10:28.998Z,96.81
2016-12-13T00:11:28.990Z,96.63
2016-12-13T00:12:29.310Z,96.53
2016-12-13T00:13:28.986Z,96.72
2016-12-13T00:14:29.302Z,96.53
2016-12-13T00:15:29.294Z,96.53
2016-12-13T00:16:29.290Z,96.63
2016-12-13T00:17:29.286Z,96.63
2016-12-13T00:18:29.282Z,96.53
2016-12-13T00:19:29.278Z,96.63
2016-12-13T00:20:29.270Z,96.63
2016-12-13T00:21:29.266Z,96.25
2016-12-13T00:22:29.266Z,96.34
2016-12-13T00:23:29.259Z,96.25
2016-12-13T00:24:29.254Z,95.87
2016-12-13T00:25:29.251Z,95.68
2016-12-13T00:26:29.243Z,95.87
2016-12-13T00:27:29.239Z,95.97
2016-12-13T00:28:29.239Z,95.68
2016-12-13T00:29:29.227Z,95.87
2016-12-13T00:30:29.227Z,95.68
2016-12-13T00:31:28.895Z,95.59
2016-12-13T00:32:29.215Z,95.4
2016-12-13T00:33:29.207Z,95.68
2016-12-13T00:34:29.203Z,95.87
2016-12-13T00:35:29.199Z,95.87
2016-12-13T00:36:29.195Z,95.5
2016-12-13T00:37:29.187Z,95.68
2016-12-13T00:38:29.183Z,95.59
2016-12-13T00:39:29.179Z,95.87
2016-12-13T00:40:28.854Z,95.21
2016-12-13T00:41:29.171Z,95.31
2016-12-13T00:42:29.164Z,95.03
2016-12-13T00:43:29.165Z,95.5
2016-12-13T00:44:29.163Z,95.03
2016-12-13T00:45:29.148Z,95.21
2016-12-13T00:46:29.145Z,95.31
2016-12-13T00:47:29.140Z,94.93
2016-12-13T00:48:30.547Z,94.74
2016-12-13T00:49:29.128Z,94.74
2016-12-13T00:50:29.124Z,95.12
2016-12-13T00:51:29.124Z,95.03
2016-12-13T00:52:29.116Z,95.5
2016-12-13T00:53:29.108Z,95.21
2016-12-13T00:54:29.104Z,95.31
2016-12-13T00:55:29.100Z,95.21
2016-12-13T00:56:29.096Z,95.31
2016-12-13T00:57:28.764Z,95.12
2016-12-13T00:58:28.760Z,94.93
2016-12-13T00:59:29.088Z,94.65
2016-12-13T01:00:29.076Z,94.93
2016-12-13T01:01:28.749Z,94.65
2016-12-13T01:02:28.740Z,94.84
2016-12-13T01:03:29.061Z,94.65
2016-12-13T01:04:29.061Z,94.46
2016-12-13T01:05:29.053Z,94.27
2016-12-13T01:06:29.045Z,94.84
2016-12-13T01:07:29.040Z,94.74
2016-12-13T01:08:29.037Z,94.74
2016-12-13T01:09:29.033Z,94.84
2016-12-13T01:10:29.025Z,94.74
2016-12-13T01:11:29.021Z,94.74
2016-12-13T01:12:29.017Z,94.65
2016-12-13T01:13:29.017Z,94.84
2016-12-13T01:14:29.005Z,94.46
2016-12-13T01:15:29.001Z,94.84
2016-12-13T01:16:29.001Z,94.65
2016-12-13T01:17:28.993Z,94.84
2016-12-13T01:18:28.985Z,94.74
2016-12-13T01:19:28.981Z,94.65
2016-12-13T01:20:28.977Z,94.74
2016-12-13T01:21:28.977Z,94.65
2016-12-13T01:22:28.966Z,94.65
2016-12-13T01:23:28.961Z,94.84
2016-12-13T01:24:28.961Z,94.65
2016-12-13T01:25:28.958Z,94.36
2016-12-13T01:26:28.946Z,94.08
2016-12-13T01:27:28.942Z,94.08
2016-12-13T01:28:28.942Z,94.46
2016-12-13T01:29:28.934Z,94.46
2016-12-13T01:30:28.930Z,94.55
2016-12-13T01:31:28.922Z,94.36
2016-12-13T01:32:28.918Z,94.27
2016-12-13T01:33:28.914Z,94.46
2016-12-13T01:34:28.906Z,94.65
2016-12-13T01:35:28.902Z,94.27
2016-12-13T01:36:28.898Z,94.27
2016-12-13T01:37:28.570Z,93.99
2016-12-13T01:38:28.886Z,94.41
2016-12-13T01:39:28.886Z,94.65
2016-12-13T01:40:28.881Z,94.46
2016-12-13T01:41:28.551Z,94.74
2016-12-13T01:42:28.866Z,94.27
2016-12-13T01:43:28.871Z,94.27
2016-12-13T01:44:28.858Z,94.36
2016-12-13T01:45:28.530Z,94.46
2016-12-13T01:46:28.847Z,94.65
2016-12-13T01:47:28.842Z,94.27
2016-12-13T01:48:28.839Z,94.36
2016-12-13T01:49:28.831Z,94.18
2016-12-13T01:50:28.827Z,94.18
2016-12-13T01:51:28.827Z,94.55
2016-12-13T01:52:28.819Z,94.55
2016-12-13T01:53:28.810Z,94.74
2016-12-13T01:54:28.819Z,94.93
2016-12-13T01:55:28.479Z,94.84
2016-12-13T01:56:28.475Z,94.6
2016-12-13T01:57:28.791Z,94.65
2016-12-13T01:58:28.787Z,94.32
2016-12-13T01:59:28.783Z,94.74
2016-12-13T02:00:28.779Z,94.84
2016-12-13T02:01:28.775Z,94.79
2016-12-13T02:02:28.771Z,94.36
2016-12-13T02:03:28.763Z,94.27
2016-12-13T02:04:28.755Z,94.27
2016-12-13T02:05:28.756Z,94.03
2016-12-13T02:06:28.423Z,94.55
2016-12-13T02:07:28.743Z,94.32
2016-12-13T02:08:28.735Z,94.6
2016-12-13T02:09:28.731Z,94.32
2016-12-13T02:10:28.728Z,93.65
2016-12-13T02:11:28.720Z,94.03
2016-12-13T02:12:28.716Z,94.51
2016-12-13T02:13:28.720Z,94.13
2016-12-13T02:14:28.708Z,94.22
2016-12-13T02:15:28.376Z,94.88
2016-12-13T02:16:28.696Z,94.32
2016-12-13T02:17:28.692Z,94.51
2016-12-13T02:18:28.688Z,94.13
2016-12-13T02:19:28.680Z,94.41
2016-12-13T02:20:28.676Z,94.41
2016-12-13T02:21:28.672Z,94.22
2016-12-13T02:22:28.664Z,94.22
2016-12-13T02:23:28.660Z,94.41
2016-12-13T02:24:28.656Z,94.32
2016-12-13T02:25:28.652Z,94.03
2016-12-13T02:26:28.648Z,94.22
2016-12-13T02:27:28.640Z,94.6
2016-12-13T02:28:28.640Z,94.32
2016-12-13T02:29:28.628Z,94.6
2016-12-13T02:30:28.624Z,94.41
2016-12-13T02:31:28.296Z,94.22
2016-12-13T02:32:28.616Z,94.32
2016-12-13T02:33:28.609Z,94.13
2016-12-13T02:34:28.604Z,94.22
2016-12-13T02:35:28.600Z,94.32
2016-12-13T02:36:28.274Z,94.32
2016-12-13T02:37:28.588Z,94.6
2016-12-13T02:38:28.585Z,94.93
2016-12-13T02:39:28.580Z,95.21
2016-12-13T02:40:28.572Z,95.68
2016-12-13T02:41:28.568Z,96.15
2016-12-13T02:42:28.565Z,96.06
2016-12-13T02:43:28.557Z,96.63
2016-12-13T02:44:28.553Z,96.72
2016-12-13T02:45:28.549Z,96.81
2016-12-13T02:46:28.541Z,96.63
2016-12-13T02:47:28.541Z,96.81
2016-12-13T02:48:28.533Z,97
2016-12-13T02:49:28.535Z,97.05
2016-12-13T02:50:28.525Z,97.62
2016-12-13T02:51:28.517Z,97.53
2016-12-13T02:52:28.513Z,97.72
2016-12-13T02:53:28.509Z,97.53
2016-12-13T02:54:28.505Z,97.72
2016-12-13T02:55:28.497Z,97.91
2016-12-13T02:56:28.493Z,97.43
2016-12-13T02:57:28.489Z,97.62
2016-12-13T02:58:28.485Z,98.38
2016-12-13T02:59:28.477Z,98.28
2016-12-13T03:00:28.473Z,98.1
2016-12-13T03:01:28.469Z,98
2016-12-13T03:02:28.461Z,98.28
2016-12-13T03:03:28.133Z,98.43
2016-12-13T03:04:28.454Z,98.14
2016-12-13T03:05:28.117Z,98.05
2016-12-13T03:06:28.443Z,98.52
2016-12-13T03:07:28.438Z,99.08
2016-12-13T03:08:28.430Z,99.08
2016-12-13T03:09:28.426Z,98.99
2016-12-13T03:10:28.094Z,99.08
2016-12-13T03:11:28.094Z,98.8
2016-12-13T03:12:28.410Z,98.99
2016-12-13T03:13:28.406Z,98.9
2016-12-13T03:14:28.402Z,99.65
2016-12-13T03:15:28.070Z,99.18
2016-12-13T03:16:28.390Z,98.8
2016-12-13T03:17:28.062Z,98.61
2016-12-13T03:18:28.382Z,99.46
2016-12-13T03:19:28.374Z,99.08
2016-12-13T03:20:28.374Z,99.08
2016-12-13T03:21:28.366Z,99.37
2016-12-13T03:22:28.362Z,99.37
2016-12-13T03:23:28.358Z,99.42
2016-12-13T03:24:28.350Z,98.99
2016-12-13T03:25:28.022Z,99.14
2016-12-13T03:26:28.338Z,99.23
2016-12-13T03:27:28.334Z,99.42
2016-12-13T03:28:28.330Z,99.42
2016-12-13T03:29:28.326Z,99.52
2016-12-13T03:30:28.318Z,99.61
2016-12-13T03:31:28.319Z,99.8
2016-12-13T03:32:28.315Z,99.52
2016-12-13T03:33:28.306Z,99.61
2016-12-13T03:34:28.302Z,99.61
2016-12-13T03:35:28.447Z,99.89
2016-12-13T03:36:27.967Z,99.89
2016-12-13T03:37:28.287Z,99.71
2016-12-13T03:38:27.955Z,99.99
2016-12-13T03:39:28.278Z,99.71
2016-12-13T03:40:28.270Z,99.42
2016-12-13T03:41:28.267Z,99.99
2016-12-13T03:42:28.263Z,99.99
2016-12-13T03:43:28.254Z,99.99
2016-12-13T03:44:28.251Z,99.99
2016-12-13T03:45:28.247Z,99.8
2016-12-13T03:46:28.239Z,99.8
2016-12-13T03:47:28.234Z,99.71
2016-12-13T03:48:28.231Z,99.99
2016-12-13T03:49:28.227Z,99.99
2016-12-13T03:50:28.222Z,99.99
2016-12-13T03:51:28.215Z,99.99
2016-12-13T03:52:28.210Z,99.99
2016-12-13T03:53:28.206Z,99.99
2016-12-13T03:54:27.874Z,99.99
2016-12-13T03:55:28.204Z,99.99
2016-12-13T03:56:28.195Z,99.99
2016-12-13T03:57:28.186Z,99.99
2016-12-13T03:58:28.185Z,99.99
2016-12-13T03:59:28.181Z,99.99
2016-12-13T04:00:27.846Z,99.8
2016-12-13T04:01:28.175Z,99.8
2016-12-13T04:02:28.166Z,99.99
2016-12-13T04:03:27.834Z,99.99
2016-12-13T04:04:28.150Z,99.99
2016-12-13T04:05:28.146Z,99.99
2016-12-13T04:06:28.143Z,99.99
2016-12-13T04:07:28.152Z,99.99
2016-12-13T04:08:28.145Z,99.99
2016-12-13T04:09:28.129Z,99.99
2016-12-13T04:10:27.798Z,99.99
2016-12-13T04:11:28.118Z,99.99
2016-12-13T04:12:27.790Z,99.99
2016-12-13T04:13:28.107Z,99.99
2016-12-13T04:14:28.102Z,99.99
2016-12-13T04:15:28.098Z,99.99
2016-12-13T04:16:27.770Z,99.99
2016-12-13T04:17:28.090Z,99.99
2016-12-13T04:18:28.082Z,99.99
2016-12-13T04:19:28.078Z,99.99
2016-12-13T04:20:28.074Z,99.99
2016-12-13T04:21:28.070Z,99.99
2016-12-13T04:22:28.066Z,99.99
2016-12-13T04:23:28.062Z,99.99
2016-12-13T04:24:28.054Z,99.99
2016-12-13T04:25:28.050Z,99.99
2016-12-13T04:26:28.050Z,99.99
2016-12-13T04:27:28.042Z,99.99
2016-12-13T04:28:28.038Z,99.99
2016-12-13T04:29:28.034Z,99.99
2016-12-13T04:30:28.030Z,99.99
2016-12-13T04:31:28.022Z,99.99
2016-12-13T04:32:28.018Z,99.99
2016-12-13T04:33:28.014Z,99.99
2016-12-13T04:34:28.006Z,99.99
2016-12-13T04:35:28.002Z,99.99
2016-12-13T04:36:27.998Z,99.99
2016-12-13T04:37:27.994Z,99.99
2016-12-13T04:38:27.990Z,99.99
2016-12-13T04:39:27.986Z,99.99
2016-12-13T04:40:27.982Z,99.99
2016-12-13T04:41:27.974Z,99.99
2016-12-13T04:42:27.970Z,99.99
2016-12-13T04:43:27.966Z,99.99
2016-12-13T04:44:27.963Z,99.99
2016-12-13T04:45:27.630Z,99.99
2016-12-13T04:46:27.951Z,99.99
2016-12-13T04:47:27.947Z,99.99
2016-12-13T04:48:27.618Z,99.99
2016-12-13T04:49:27.938Z,99.99
2016-12-13T04:50:27.934Z,99.99
2016-12-13T04:51:27.934Z,99.99
2016-12-13T04:52:27.926Z,99.99
2016-12-13T04:53:27.922Z,99.99
2016-12-13T04:54:27.914Z,99.99
2016-12-13T04:55:27.915Z,99.99
2016-12-13T04:56:27.907Z,99.99
2016-12-13T04:57:27.579Z,99.99
2016-12-13T04:58:27.899Z,99.99
2016-12-13T04:59:27.891Z,99.99
2016-12-13T05:00:27.887Z,99.99
2016-12-13T05:01:27.883Z,99.99
2016-12-13T05:02:27.880Z,99.99
2016-12-13T05:03:27.875Z,99.99
2016-12-13T05:04:27.871Z,99.99
2016-12-13T05:05:27.863Z,99.99
2016-12-13T05:06:27.859Z,99.99
2016-12-13T05:07:27.855Z,99.99
2016-12-13T05:08:27.855Z,99.99
2016-12-13T05:09:27.847Z,99.99
2016-12-13T05:10:27.839Z,99.99
2016-12-13T05:11:27.839Z,99.99
2016-12-13T05:12:27.835Z,99.99
2016-12-13T05:13:27.827Z,99.99
2016-12-13T05:14:27.827Z,99.99
2016-12-13T05:15:27.819Z,99.99
2016-12-13T05:16:27.811Z,99.99
2016-12-13T05:17:27.807Z,99.99
2016-12-13T05:18:27.479Z,99.99
2016-12-13T05:19:27.799Z,99.99
2016-12-13T05:20:27.795Z,99.99
2016-12-13T05:21:27.795Z,99.99
2016-12-13T05:22:27.783Z,99.99
2016-12-13T05:23:27.787Z,99.99
2016-12-13T05:24:27.447Z,99.99
2016-12-13T05:25:27.771Z,99.99
2016-12-13T05:26:27.767Z,99.99
2016-12-13T05:27:27.795Z,99.99
2016-12-13T05:28:27.759Z,99.99
2016-12-13T05:29:27.755Z,99.99
2016-12-13T05:30:27.752Z,99.99
2016-12-13T05:31:27.744Z,99.99
2016-12-13T05:32:27.739Z,99.99
2016-12-13T05:33:27.736Z,99.99
2016-12-13T05:34:27.731Z,99.99
2016-12-13T05:35:27.728Z,99.99
2016-12-13T05:36:27.400Z,99.99
2016-12-13T05:37:27.716Z,99.99
2016-12-13T05:38:27.712Z,99.99
2016-12-13T05:39:27.711Z,99.99
2016-12-13T05:40:27.708Z,99.99
2016-12-13T05:41:27.700Z,99.99
2016-12-13T05:42:27.696Z,99.99
2016-12-13T05:43:27.693Z,99.99
2016-12-13T05:44:27.684Z,99.99
2016-12-13T05:45:27.680Z,99.99
2016-12-13T05:46:27.680Z,99.99
2016-12-13T05:47:27.972Z,99.99
2016-12-13T05:48:27.344Z,99.99
2016-12-13T05:49:27.668Z,99.99
2016-12-13T05:50:27.656Z,99.99
2016-12-13T05:51:27.656Z,99.99
2016-12-13T05:52:27.648Z,99.99
2016-12-13T05:53:27.644Z,99.99
2016-12-13T05:54:27.641Z,99.99
2016-12-13T05:55:27.640Z,99.99
2016-12-13T05:56:27.633Z,99.99
2016-12-13T05:57:27.628Z,99.99
2016-12-13T05:58:27.621Z,99.99
2016-12-13T05:59:27.621Z,99.99
2016-12-13T06:00:27.613Z,99.99
2016-12-13T06:01:27.614Z,99.99
2016-12-13T06:02:27.605Z,99.99
2016-12-13T06:03:27.605Z,99.99
2016-12-13T06:04:27.273Z,99.99
2016-12-13T06:05:27.592Z,99.99
2016-12-13T06:06:27.584Z,99.99
2016-12-13T06:07:27.580Z,99.99
2016-12-13T06:08:27.577Z,99.99
2016-12-13T06:09:27.573Z,99.99
2016-12-13T06:10:27.569Z,99.99
2016-12-13T06:11:27.568Z,99.99
2016-12-13T06:12:27.561Z,99.99
2016-12-13T06:13:27.557Z,99.99
2016-12-13T06:14:27.551Z,99.99
2016-12-13T06:15:27.221Z,99.99
2016-12-13T06:16:27.545Z,99.99
2016-12-13T06:17:27.541Z,99.99
2016-12-13T06:18:27.533Z,99.99
2016-12-13T06:19:27.529Z,99.99
2016-12-13T06:20:27.526Z,99.99
2016-12-13T06:21:27.521Z,99.99
2016-12-13T06:22:27.518Z,99.99
2016-12-13T06:23:27.509Z,99.99
2016-12-13T06:24:27.505Z,99.99
2016-12-13T06:25:27.505Z,99.99
2016-12-13T06:26:27.497Z,99.99
2016-12-13T06:27:27.498Z,99.99
2016-12-13T06:28:27.489Z,99.99
2016-12-13T06:29:27.157Z,99.99
2016-12-13T06:30:27.469Z,99.99
2016-12-13T06:31:27.469Z,99.99
2016-12-13T06:32:27.470Z,99.99
2016-12-13T06:33:27.465Z,99.99
2016-12-13T06:34:27.462Z,99.99
2016-12-13T06:35:27.454Z,99.99
2016-12-13T06:36:27.445Z,99.99
2016-12-13T06:37:27.445Z,99.99
2016-12-13T06:38:27.445Z,99.99
2016-12-13T06:39:27.109Z,99.99
2016-12-13T06:40:27.097Z,99.99
2016-12-13T06:41:27.429Z,99.99
2016-12-13T06:42:27.425Z,99.99
2016-12-13T06:43:27.414Z,99.99
2016-12-13T06:44:27.414Z,99.99
2016-12-13T06:45:27.406Z,99.99
2016-12-13T06:46:27.078Z,99.99
2016-12-13T06:47:27.074Z,99.99
2016-12-13T06:48:27.422Z,99.99
2016-12-13T06:49:27.394Z,99.99
2016-12-13T06:50:27.386Z,99.99
2016-12-13T06:51:27.058Z,99.99
2016-12-13T06:52:27.374Z,99.99
2016-12-13T06:53:27.378Z,99.99
2016-12-13T06:54:27.374Z,99.99
2016-12-13T06:55:27.366Z,99.99
2016-12-13T06:56:27.038Z,99.99
2016-12-13T06:57:27.034Z,99.99
2016-12-13T06:58:27.350Z,99.99
2016-12-13T06:59:27.350Z,99.99
2016-12-13T07:00:27.346Z,99.99
2016-12-13T07:01:27.017Z,99.99
2016-12-13T07:02:27.338Z,99.99
2016-12-13T07:03:27.334Z,99.99
2016-12-13T07:04:27.318Z,99.99
2016-12-13T07:05:26.995Z,99.99
2016-12-13T07:06:27.323Z,99.99
2016-12-13T07:07:27.310Z,99.99
2016-12-13T07:08:27.311Z,99.99
2016-12-13T07:09:27.459Z,99.99
2016-12-13T07:10:27.303Z,99.99
2016-12-13T07:11:27.295Z,99.99
2016-12-13T07:12:27.291Z,99.99
2016-12-13T07:13:27.295Z,99.99
2016-12-13T07:14:26.951Z,99.99
2016-12-13T07:15:27.279Z,99.99
2016-12-13T07:16:27.275Z,99.99
2016-12-13T07:17:27.271Z,99.99
2016-12-13T07:18:26.939Z,99.99
2016-12-13T07:19:26.931Z,99.99
2016-12-13T07:20:27.255Z,99.99
2016-12-13T07:21:27.251Z,99.99
2016-12-13T07:22:26.919Z,99.99
2016-12-13T07:23:26.915Z,99.99
2016-12-13T07:24:27.232Z,99.99
2016-12-13T07:25:27.231Z,99.99
2016-12-13T07:26:27.228Z,99.99
2016-12-13T07:27:27.223Z,99.99
2016-12-13T07:28:27.216Z,99.99
2016-12-13T07:29:27.220Z,99.99
2016-12-13T07:30:27.204Z,99.99
2016-12-13T07:31:27.200Z,99.99
2016-12-13T07:32:26.872Z,99.99
2016-12-13T07:33:27.196Z,99.99
2016-12-13T07:34:27.192Z,99.99
2016-12-13T07:35:27.195Z,99.99
2016-12-13T07:36:27.180Z,99.99
2016-12-13T07:37:27.180Z,99.99
2016-12-13T07:38:26.852Z,99.99
2016-12-13T07:39:27.164Z,99.99
2016-12-13T07:40:27.168Z,99.99
2016-12-13T07:41:27.164Z,99.99
2016-12-13T07:42:26.828Z,99.99
2016-12-13T07:43:27.157Z,99.99
2016-12-13T07:44:27.144Z,99.99
2016-12-13T07:45:27.148Z,99.99
2016-12-13T07:46:27.149Z,99.99
2016-12-13T07:47:27.140Z,99.99
2016-12-13T07:48:26.796Z,99.99
2016-12-13T07:49:27.121Z,99.99
2016-12-13T07:50:27.129Z,99.99
2016-12-13T07:51:27.113Z,99.99
2016-12-13T07:52:27.113Z,99.99
2016-12-13T07:53:27.105Z,99.99
2016-12-13T07:54:27.109Z,99.99
2016-12-13T07:55:26.773Z,99.99
2016-12-13T07:56:26.769Z,99.99
2016-12-13T07:57:27.097Z,99.99
2016-12-13T07:58:27.089Z,99.99
2016-12-13T07:59:27.085Z,99.99
2016-12-13T08:00:27.081Z,99.99
2016-12-13T08:01:27.069Z,99.99
2016-12-13T08:02:26.737Z,99.99
2016-12-13T08:03:26.737Z,99.99
2016-12-13T08:04:27.057Z,99.99
2016-12-13T08:05:27.053Z,99.99
2016-12-13T08:06:27.049Z,99.99
2016-12-13T08:07:27.049Z,99.99
2016-12-13T08:08:27.045Z,99.99
2016-12-13T08:09:27.036Z,99.99
2016-12-13T08:10:27.029Z,99.99
2016-12-13T08:11:26.705Z,99.99
2016-12-13T08:12:26.701Z,99.99
2016-12-13T08:13:27.021Z,99.99
2016-12-13T08:14:27.013Z,99.99
2016-12-13T08:15:27.017Z,99.99
2016-12-13T08:16:27.009Z,99.99
2016-12-13T08:17:27.004Z,99.99
2016-12-13T08:18:27.001Z,99.99
2016-12-13T08:19:27.025Z,99.99
2016-12-13T08:20:26.985Z,99.99
2016-12-13T08:21:26.989Z,99.99
2016-12-13T08:22:26.981Z,99.99
2016-12-13T08:23:26.973Z,99.99
2016-12-13T08:24:26.973Z,99.99
2016-12-13T08:25:26.968Z,99.99
2016-12-13T08:26:26.636Z,99.99
2016-12-13T08:27:26.965Z,99.99
2016-12-13T08:28:26.956Z,99.99
2016-12-13T08:29:26.952Z,99.99
2016-12-13T08:30:26.620Z,99.99
2016-12-13T08:31:26.617Z,99.99
2016-12-13T08:32:26.940Z,99.99
2016-12-13T08:33:26.601Z,99.99
2016-12-13T08:34:26.596Z,99.99
2016-12-13T08:35:26.596Z,99.99
2016-12-13T08:36:26.597Z,99.99
2016-12-13T08:37:26.593Z,99.99
2016-12-13T08:38:26.917Z,99.99
2016-12-13T08:39:26.585Z,99.99
2016-12-13T08:40:26.577Z,99.99
2016-12-13T08:41:26.573Z,99.99
2016-12-13T08:42:26.573Z,99.99
2016-12-13T08:43:26.889Z,99.99
2016-12-13T08:44:26.565Z,99.99
2016-12-13T08:45:26.889Z,99.99
2016-12-13T08:46:26.881Z,99.99
2016-12-13T08:47:26.877Z,99.99
2016-12-13T08:48:26.869Z,99.99
2016-12-13T08:49:26.873Z,99.99
2016-12-13T08:50:26.861Z,99.99
2016-12-13T08:51:26.858Z,99.99
2016-12-13T08:52:26.854Z,99.99
2016-12-13T08:53:26.854Z,99.99
2016-12-13T08:54:26.842Z,99.99
2016-12-13T08:55:26.842Z,99.99
2016-12-13T08:56:26.509Z,99.99
2016-12-13T08:57:26.510Z,99.99
2016-12-13T08:58:26.826Z,99.99
2016-12-13T08:59:26.826Z,99.99
2016-12-13T09:00:26.822Z,99.99
2016-12-13T09:01:26.818Z,99.99
2016-12-13T09:02:26.810Z,99.99
2016-12-13T09:03:26.810Z,99.99
2016-12-13T09:04:26.478Z,99.99
2016-12-13T09:05:26.474Z,99.99
2016-12-13T09:06:26.794Z,99.99
2016-12-13T09:07:26.798Z,99.99
2016-12-13T09:08:26.794Z,99.99
2016-12-13T09:09:26.790Z,99.99
2016-12-13T09:10:26.458Z,99.99
2016-12-13T09:11:26.459Z,99.99
2016-12-13T09:12:26.447Z,99.99
2016-12-13T09:13:26.775Z,99.99
2016-12-13T09:14:26.766Z,99.99
2016-12-13T09:15:26.759Z,99.99
2016-12-13T09:16:26.763Z,99.99
2016-12-13T09:17:26.430Z,99.99
2016-12-13T09:18:26.426Z,99.99
2016-12-13T09:19:26.747Z,99.99
2016-12-13T09:20:26.747Z,99.99
2016-12-13T09:21:26.743Z,99.99
2016-12-13T09:22:26.411Z,99.99
2016-12-13T09:23:26.403Z,99.99
2016-12-13T09:24:26.731Z,99.99
2016-12-13T09:25:26.727Z,99.99
2016-12-13T09:26:26.719Z,99.99
2016-12-13T09:27:26.711Z,99.99
2016-12-13T09:28:26.383Z,99.99
2016-12-13T09:29:26.707Z,99.99
2016-12-13T09:30:26.695Z,99.99
2016-12-13T09:31:26.364Z,99.99
2016-12-13T09:32:26.363Z,99.99
2016-12-13T09:33:26.692Z,99.99
2016-12-13T09:34:26.684Z,99.99
2016-12-13T09:35:26.684Z,99.99
2016-12-13T09:36:28.091Z,99.99
2016-12-13T09:37:26.676Z,99.99
2016-12-13T09:38:26.676Z,99.99
2016-12-13T09:39:26.664Z,99.99
2016-12-13T09:40:26.660Z,99.99
2016-12-13T09:41:26.652Z,99.99
2016-12-13T09:42:26.328Z,99.99
2016-12-13T09:43:26.652Z,99.99
2016-12-13T09:44:26.652Z,99.99
2016-12-13T09:45:26.644Z,99.99
2016-12-13T09:46:26.640Z,99.99
2016-12-13T09:47:26.636Z,99.99
2016-12-13T09:48:26.308Z,99.99
2016-12-13T09:49:26.624Z,99.99
2016-12-13T09:50:26.620Z,99.99
2016-12-13T09:51:26.296Z,99.99
2016-12-13T09:52:26.616Z,99.99
2016-12-13T09:53:26.617Z,99.99
2016-12-13T09:54:26.608Z,99.99
2016-12-13T09:55:26.280Z,99.99
2016-12-13T09:56:26.272Z,99.99
2016-12-13T09:57:26.600Z,99.99
2016-12-13T09:58:26.596Z,99.99
2016-12-13T09:59:26.264Z,99.99
2016-12-13T10:00:26.589Z,99.99
2016-12-13T10:01:30.712Z,99.99
2016-12-13T10:02:26.576Z,99.99
2016-12-13T10:03:26.572Z,99.99
2016-12-13T10:04:49.421Z,99.99
2016-12-13T10:05:26.561Z,99.99
2016-12-13T10:06:26.233Z,99.99
2016-12-13T10:07:26.556Z,99.99
2016-12-13T10:08:26.557Z,99.99
2016-12-13T10:09:26.549Z,99.99
2016-12-13T10:10:26.545Z,99.99
2016-12-13T10:11:26.545Z,99.99
2016-12-13T10:12:26.540Z,99.99
2016-12-13T10:13:26.541Z,99.99
2016-12-13T10:14:26.201Z,99.99
2016-12-13T10:15:26.537Z,99.99
2016-12-13T10:16:26.197Z,99.99
2016-12-13T10:17:26.521Z,99.99
2016-12-13T10:18:26.517Z,99.99
2016-12-13T10:19:26.513Z,99.99
2016-12-13T10:20:26.181Z,99.99
2016-12-13T10:21:26.502Z,99.99
2016-12-13T10:22:26.173Z,99.99
2016-12-13T10:23:26.506Z,99.99
2016-12-13T10:24:26.498Z,99.99
2016-12-13T10:25:26.490Z,99.99
2016-12-13T10:26:26.482Z,99.99
2016-12-13T10:27:26.482Z,99.99
2016-12-13T10:28:26.478Z,99.99
2016-12-13T10:29:26.150Z,99.82
2016-12-13T10:30:26.498Z,99.82
2016-12-13T10:31:26.474Z,99.91
2016-12-13T10:32:26.142Z,99.39
2016-12-13T10:33:26.458Z,99.34
2016-12-13T10:34:26.454Z,99.72
2016-12-13T10:35:26.130Z,99.53
2016-12-13T10:36:26.446Z,98.82
2016-12-13T10:37:26.122Z,99.34
2016-12-13T10:38:26.446Z,99.77
2016-12-13T10:39:26.442Z,99.29
2016-12-13T10:40:26.110Z,99.29
2016-12-13T10:41:26.438Z,99.1
2016-12-13T10:42:26.434Z,99.1
2016-12-13T10:43:26.426Z,99.34
2016-12-13T10:44:26.427Z,98.77
2016-12-13T10:45:26.423Z,98.49
2016-12-13T10:46:26.419Z,98.68
2016-12-13T10:47:26.087Z,98.87
2016-12-13T10:48:26.406Z,98.68
2016-12-13T10:49:26.407Z,98.63
2016-12-13T10:50:26.403Z,98.82
2016-12-13T10:51:26.399Z,98.63
2016-12-13T10:52:26.399Z,98.63
2016-12-13T10:53:26.391Z,98.44
2016-12-13T10:54:26.387Z,98.44
2016-12-13T10:55:26.383Z,98.54
2016-12-13T10:56:26.371Z,98.63
2016-12-13T10:57:26.059Z,98.72
2016-12-13T10:58:26.375Z,99.1
2016-12-13T10:59:26.043Z,99.01
2016-12-13T11:00:26.367Z,99.2
2016-12-13T11:01:26.359Z,98.54
2016-12-13T11:02:26.036Z,99.77
2016-12-13T11:03:26.655Z,98.82
2016-12-13T11:04:26.356Z,98.68
2016-12-13T11:05:26.024Z,98.39
2016-12-13T11:06:26.348Z,98.68
2016-12-13T11:07:26.344Z,98.96
2016-12-13T11:08:26.336Z,98.11
2016-12-13T11:09:26.008Z,98.77
2016-12-13T11:10:26.328Z,97.54
2016-12-13T11:11:26.329Z,97.73
2016-12-13T11:12:26.004Z,97.54
2016-12-13T11:13:26.322Z,97.92
2016-12-13T11:14:26.328Z,97.16
2016-12-13T11:15:25.984Z,97.16
2016-12-13T11:16:26.309Z,97.26
2016-12-13T11:17:26.312Z,96.88
2016-12-13T11:18:26.302Z,96.88
2016-12-13T11:19:25.972Z,97.35
2016-12-13T11:20:26.301Z,96.69
2016-12-13T11:21:25.965Z,97.07
2016-12-13T11:22:26.292Z,97.35
2016-12-13T11:23:25.952Z,96.5
2016-12-13T11:24:26.273Z,96.41
2016-12-13T11:25:26.281Z,96.03
2016-12-13T11:26:26.281Z,96.12
2016-12-13T11:27:26.285Z,96.03
2016-12-13T11:28:25.968Z,96.12
2016-12-13T11:29:25.941Z,96.12
2016-12-13T11:30:26.261Z,96.41
2016-12-13T11:31:26.253Z,96.69
2016-12-13T11:32:25.929Z,95.74
2016-12-13T11:33:25.929Z,95.55
2016-12-13T11:34:26.245Z,95.36
2016-12-13T11:35:26.245Z,95.74
2016-12-13T11:36:26.246Z,95.07
2016-12-13T11:37:26.242Z,94.98
2016-12-13T11:38:25.909Z,94.89
2016-12-13T11:39:26.226Z,95.36
2016-12-13T11:40:26.226Z,94.98
2016-12-13T11:41:26.224Z,94.89
2016-12-13T11:42:26.226Z,94.7
2016-12-13T11:43:26.222Z,94.13
2016-12-13T11:44:25.890Z,94.32
2016-12-13T11:45:26.210Z,94.04
2016-12-13T11:46:25.882Z,93.94
2016-12-13T11:47:25.886Z,93.46
2016-12-13T11:48:26.206Z,93.08
2016-12-13T11:49:26.198Z,93.94
2016-12-13T11:50:25.862Z,93.65
2016-12-13T11:51:25.866Z,93.51
2016-12-13T11:52:26.192Z,93.61
2016-12-13T11:53:25.858Z,93.37
2016-12-13T11:54:26.183Z,93.37
2016-12-13T11:55:26.179Z,93.27
2016-12-13T11:56:26.179Z,92.9
2016-12-13T11:57:25.846Z,92.71
2016-12-13T11:58:26.171Z,92.71
2016-12-13T11:59:26.175Z,92.61
2016-12-13T12:00:25.831Z,92.52
2016-12-13T12:01:26.155Z,92.33
2016-12-13T12:02:26.151Z,92.71
2016-12-13T12:03:26.151Z,92.04
2016-12-13T12:04:26.147Z,92.04
2016-12-13T12:05:25.819Z,91.19
2016-12-13T12:06:26.155Z,91.28
2016-12-13T12:07:25.807Z,90.53
2016-12-13T12:08:26.139Z,90.72
2016-12-13T12:09:26.133Z,91
2016-12-13T12:10:26.127Z,91.66
2016-12-13T12:11:26.131Z,91.38
2016-12-13T12:12:26.116Z,91.19
2016-12-13T12:13:26.116Z,90.62
2016-12-13T12:14:26.119Z,90.91
2016-12-13T12:15:25.784Z,90.62
2016-12-13T12:16:25.792Z,91
2016-12-13T12:17:25.775Z,90.34
2016-12-13T12:18:25.779Z,89.77
2016-12-13T12:19:25.772Z,90.15
2016-12-13T12:20:26.096Z,90.15
2016-12-13T12:21:26.092Z,89.58
2016-12-13T12:22:26.092Z,89.77
2016-12-13T12:23:26.080Z,89.77
2016-12-13T12:24:26.104Z,89.58
2016-12-13T12:25:26.080Z,89.39
2016-12-13T12:26:26.075Z,89.2
2016-12-13T12:27:26.076Z,89.39
2016-12-13T12:28:26.072Z,89.77
2016-12-13T12:29:26.064Z,89.67
2016-12-13T12:30:26.056Z,89.67
2016-12-13T12:31:26.061Z,89.58
2016-12-13T12:32:26.053Z,89.86
2016-12-13T12:33:26.053Z,90.24
2016-12-13T12:34:25.717Z,90.05
2016-12-13T12:35:25.713Z,90.53
2016-12-13T12:36:25.717Z,90.62
2016-12-13T12:37:25.713Z,90.15
2016-12-13T12:38:25.712Z,90.62
2016-12-13T12:39:26.028Z,90.62
2016-12-13T12:40:26.029Z,90.72
2016-12-13T12:41:26.025Z,90.81
2016-12-13T12:42:26.021Z,90.81
2016-12-13T12:43:26.021Z,90.91
2016-12-13T12:44:26.017Z,90.34
2016-12-13T12:45:26.013Z,90.34
2016-12-13T12:46:26.009Z,90.15
2016-12-13T12:47:26.005Z,89.96
2016-12-13T12:48:26.001Z,89.58
2016-12-13T12:49:26.005Z,89.77
2016-12-13T12:50:25.997Z,88.82
2016-12-13T12:51:25.997Z,89.2
2016-12-13T12:52:25.993Z,89.48
2016-12-13T12:53:25.659Z,89.39